createdAt,value
2019-03-27T00:00:08.594Z,1015.90
2019-03-27T00:01:08.607Z,1015.90
2019-03-27T00:02:08.600Z,1015.95
2019-03-27T00:03:08.089Z,1015.93
2019-03-27T00:04:08.105Z,1015.93
2019-03-27T00:05:08.096Z,1015.96
2019-03-27T00:06:08.092Z,1015.91
2019-03-27T00:07:08.105Z,1015.95
2019-03-27T00:08:08.091Z,1015.92
2019-03-27T00:09:08.091Z,1015.93
2019-03-27T00:10:08.093Z,1015.92
2019-03-27T00:11:08.093Z,1015.94
2019-03-27T00:12:08.107Z,1015.87
2019-03-27T00:13:08.092Z,1015.85
2019-03-27T00:14:08.112Z,1015.86
2019-03-27T00:15:13.109Z,1015.85
2019-03-27T00:16:09.080Z,1015.85
2019-03-27T00:17:08.099Z,1015.92
2019-03-27T00:18:08.102Z,1015.94
2019-03-27T00:19:08.102Z,1015.87
2019-03-27T00:20:08.080Z,1015.86
2019-03-27T00:21:08.089Z,1015.92
2019-03-27T00:22:08.094Z,1015.87
2019-03-27T00:23:08.095Z,1015.91
2019-03-27T00:24:08.097Z,1015.89
2019-03-27T00:25:08.107Z,1015.95
2019-03-27T00:26:08.090Z,1015.96
2019-03-27T00:27:08.089Z,1015.98
2019-03-27T00:28:08.088Z,1015.92
2019-03-27T00:29:08.089Z,1015.91
2019-03-27T00:30:08.099Z,1015.90
2019-03-27T00:31:08.092Z,1015.84
2019-03-27T00:32:08.093Z,1015.86
2019-03-27T00:33:06.293Z,1015.83
2019-03-27T00:34:08.088Z,1015.86
2019-03-27T00:35:08.077Z,1015.88
2019-03-27T00:36:08.104Z,1015.88
2019-03-27T00:37:08.090Z,1015.90
2019-03-27T00:38:08.096Z,1015.86
2019-03-27T00:39:06.225Z,1015.83
2019-03-27T00:40:08.094Z,1015.78
2019-03-27T00:41:08.086Z,1015.79
2019-03-27T00:42:08.093Z,1015.81
2019-03-27T00:43:08.097Z,1015.79
2019-03-27T00:44:08.089Z,1015.79
2019-03-27T00:45:08.088Z,1015.83
2019-03-27T00:46:08.091Z,1015.81
2019-03-27T00:47:08.086Z,1015.79
2019-03-27T00:48:08.094Z,1015.84
2019-03-27T00:49:08.087Z,1015.84
2019-03-27T00:50:07.599Z,1015.84
2019-03-27T00:51:07.591Z,1015.86
2019-03-27T00:52:07.578Z,1015.84
2019-03-27T00:53:07.586Z,1015.85
2019-03-27T00:54:07.588Z,1015.88
2019-03-27T00:55:07.608Z,1015.88
2019-03-27T00:56:07.598Z,1015.84
2019-03-27T00:57:07.588Z,1015.82
2019-03-27T00:58:07.594Z,1015.83
2019-03-27T00:59:07.574Z,1015.85
2019-03-27T01:00:07.587Z,1015.82
2019-03-27T01:01:07.585Z,1015.82
2019-03-27T01:02:07.597Z,1015.81
2019-03-27T01:03:07.588Z,1015.78
2019-03-27T01:04:07.596Z,1015.84
2019-03-27T01:05:07.587Z,1015.86
2019-03-27T01:06:07.585Z,1015.82
2019-03-27T01:07:07.574Z,1015.87
2019-03-27T01:08:07.588Z,1015.89
2019-03-27T01:09:07.594Z,1015.86
2019-03-27T01:10:07.584Z,1015.86
2019-03-27T01:11:07.597Z,1015.85
2019-03-27T01:12:07.573Z,1015.88
2019-03-27T01:13:07.583Z,1015.87
2019-03-27T01:14:07.586Z,1015.86
2019-03-27T01:15:07.606Z,1015.79
2019-03-27T01:16:07.590Z,1015.80
2019-03-27T01:17:07.584Z,1015.81
2019-03-27T01:18:07.585Z,1015.76
2019-03-27T01:19:07.584Z,1015.77
2019-03-27T01:20:07.595Z,1015.77
2019-03-27T01:21:07.585Z,1015.78
2019-03-27T01:22:07.586Z,1015.77
2019-03-27T01:23:07.573Z,1015.78
2019-03-27T01:24:07.584Z,1015.85
2019-03-27T01:25:07.584Z,1015.84
2019-03-27T01:26:07.592Z,1015.84
2019-03-27T01:27:07.571Z,1015.86
2019-03-27T01:28:07.575Z,1015.85
2019-03-27T01:29:07.590Z,1015.84
2019-03-27T01:30:07.583Z,1015.86
2019-03-27T01:31:07.594Z,1015.84
2019-03-27T01:32:07.593Z,1015.82
2019-03-27T01:33:06.585Z,1015.87
2019-03-27T01:34:07.580Z,1015.87
2019-03-27T01:35:07.570Z,1015.88
2019-03-27T01:36:07.569Z,1015.86
2019-03-27T01:37:07.589Z,1015.87
2019-03-27T01:38:06.581Z,1015.88
2019-03-27T01:39:07.082Z,1015.91
2019-03-27T01:40:08.082Z,1015.91
2019-03-27T01:41:07.150Z,1015.94
2019-03-27T01:42:07.081Z,1015.92
2019-03-27T01:43:07.094Z,1015.89
2019-03-27T01:44:07.090Z,1015.87
2019-03-27T01:45:07.081Z,1015.86
2019-03-27T01:46:07.080Z,1015.86
2019-03-27T01:47:07.085Z,1015.94
2019-03-27T01:48:07.084Z,1015.95
2019-03-27T01:49:07.079Z,1015.98
2019-03-27T01:50:07.084Z,1015.98
2019-03-27T01:51:05.453Z,1015.94
2019-03-27T01:52:08.183Z,1015.97
2019-03-27T01:53:07.088Z,1015.93
2019-03-27T01:54:07.082Z,1015.95
2019-03-27T01:55:07.069Z,1015.95
2019-03-27T01:56:07.082Z,1015.92
2019-03-27T01:57:07.080Z,1015.94
2019-03-27T01:58:07.078Z,1015.93
2019-03-27T01:59:07.085Z,1015.94
2019-03-27T02:00:07.077Z,1015.87
2019-03-27T02:01:07.077Z,1015.85
2019-03-27T02:02:07.079Z,1015.86
2019-03-27T02:03:07.091Z,1015.87
2019-03-27T02:04:07.090Z,1015.89
2019-03-27T02:05:07.079Z,1015.84
2019-03-27T02:06:07.079Z,1015.84
2019-03-27T02:07:07.076Z,1015.87
2019-03-27T02:08:07.065Z,1015.89
2019-03-27T02:09:07.076Z,1015.91
2019-03-27T02:10:07.087Z,1015.87
2019-03-27T02:11:07.077Z,1015.87
2019-03-27T02:12:07.066Z,1015.85
2019-03-27T02:13:07.076Z,1015.77
2019-03-27T02:14:07.081Z,1015.80
2019-03-27T02:15:07.087Z,1015.82
2019-03-27T02:16:21.076Z,1015.82
2019-03-27T02:17:07.077Z,1015.88
2019-03-27T02:18:07.064Z,1015.85
2019-03-27T02:19:07.077Z,1015.88
2019-03-27T02:20:07.088Z,1015.89
2019-03-27T02:21:07.075Z,1015.89
2019-03-27T02:22:07.076Z,1015.85
2019-03-27T02:23:07.087Z,1015.86
2019-03-27T02:24:07.077Z,1015.87
2019-03-27T02:25:07.086Z,1015.88
2019-03-27T02:26:06.582Z,1015.82
2019-03-27T02:27:06.589Z,1015.84
2019-03-27T02:28:06.583Z,1015.82
2019-03-27T02:29:06.575Z,1015.81
2019-03-27T02:30:06.574Z,1015.80
2019-03-27T02:31:06.588Z,1015.83
2019-03-27T02:32:06.588Z,1015.80
2019-03-27T02:33:06.580Z,1015.83
2019-03-27T02:34:06.574Z,1015.85
2019-03-27T02:35:06.574Z,1015.84
2019-03-27T02:36:06.574Z,1015.88
2019-03-27T02:37:06.586Z,1015.85
2019-03-27T02:38:06.569Z,1015.81
2019-03-27T02:39:04.934Z,1015.78
2019-03-27T02:40:06.581Z,1015.84
2019-03-27T02:41:06.563Z,1015.79
2019-03-27T02:42:06.577Z,1015.82
2019-03-27T02:43:06.584Z,1015.78
2019-03-27T02:44:06.571Z,1015.81
2019-03-27T02:45:04.872Z,1015.80
2019-03-27T02:46:23.240Z,1015.81
2019-03-27T02:47:07.576Z,1015.80
2019-03-27T02:48:06.598Z,1015.76
2019-03-27T02:49:06.589Z,1015.78
2019-03-27T02:50:06.562Z,1015.77
2019-03-27T02:51:06.651Z,1015.77
2019-03-27T02:52:06.570Z,1015.76
2019-03-27T02:53:06.578Z,1015.80
2019-03-27T02:54:06.572Z,1015.81
2019-03-27T02:55:06.572Z,1015.80
2019-03-27T02:56:06.576Z,1015.78
2019-03-27T02:57:06.570Z,1015.79
2019-03-27T02:58:06.579Z,1015.75
2019-03-27T02:59:06.577Z,1015.72
2019-03-27T03:00:06.572Z,1015.75
2019-03-27T03:01:06.572Z,1015.71
2019-03-27T03:02:06.566Z,1015.71
2019-03-27T03:03:06.568Z,1015.76
2019-03-27T03:04:06.569Z,1015.79
2019-03-27T03:05:06.575Z,1015.76
2019-03-27T03:06:06.576Z,1015.76
2019-03-27T03:07:06.570Z,1015.80
2019-03-27T03:08:06.577Z,1015.77
2019-03-27T03:09:06.587Z,1015.82
2019-03-27T03:10:06.575Z,1015.77
2019-03-27T03:11:06.569Z,1015.77
2019-03-27T03:12:06.568Z,1015.78
2019-03-27T03:13:06.591Z,1015.78
2019-03-27T03:14:06.073Z,1015.78
2019-03-27T03:15:06.079Z,1015.78
2019-03-27T03:16:06.073Z,1015.76
2019-03-27T03:17:06.057Z,1015.75
2019-03-27T03:18:06.068Z,1015.73
2019-03-27T03:19:06.076Z,1015.73
2019-03-27T03:20:06.069Z,1015.73
2019-03-27T03:21:06.067Z,1015.72
2019-03-27T03:22:06.056Z,1015.74
2019-03-27T03:23:06.073Z,1015.75
2019-03-27T03:24:06.075Z,1015.73
2019-03-27T03:25:06.056Z,1015.82
2019-03-27T03:26:06.068Z,1015.82
2019-03-27T03:27:06.066Z,1015.82
2019-03-27T03:28:06.072Z,1015.80
2019-03-27T03:29:06.091Z,1015.85
2019-03-27T03:30:06.080Z,1015.87
2019-03-27T03:31:06.087Z,1015.91
2019-03-27T03:32:06.077Z,1015.88
2019-03-27T03:33:06.083Z,1015.87
2019-03-27T03:34:06.080Z,1015.89
2019-03-27T03:35:06.073Z,1015.87
2019-03-27T03:36:06.064Z,1015.89
2019-03-27T03:37:06.054Z,1015.87
2019-03-27T03:38:06.065Z,1015.87
2019-03-27T03:39:06.068Z,1015.89
2019-03-27T03:40:06.078Z,1015.88
2019-03-27T03:41:06.066Z,1015.88
2019-03-27T03:42:06.053Z,1015.90
2019-03-27T03:43:06.065Z,1015.92
2019-03-27T03:44:06.064Z,1015.92
2019-03-27T03:45:06.071Z,1015.88
2019-03-27T03:46:06.068Z,1015.94
2019-03-27T03:47:06.065Z,1015.95
2019-03-27T03:48:06.063Z,1015.95
2019-03-27T03:49:06.052Z,1015.99
2019-03-27T03:50:06.075Z,1016.01
2019-03-27T03:51:06.072Z,1016.01
2019-03-27T03:52:06.077Z,1016.00
2019-03-27T03:53:06.065Z,1016.05
2019-03-27T03:54:06.062Z,1016.03
2019-03-27T03:55:06.065Z,1016.00
2019-03-27T03:56:06.065Z,1016.03
2019-03-27T03:57:06.066Z,1015.99
2019-03-27T03:58:06.063Z,1016.05
2019-03-27T03:59:06.062Z,1016.02
2019-03-27T04:00:06.084Z,1016.02
2019-03-27T04:01:05.581Z,1016.06
2019-03-27T04:02:04.074Z,1016.05
2019-03-27T04:03:05.563Z,1016.10
2019-03-27T04:04:05.567Z,1016.05
2019-03-27T04:05:05.561Z,1016.10
2019-03-27T04:06:05.550Z,1016.05
2019-03-27T04:07:05.563Z,1016.04
2019-03-27T04:08:05.568Z,1016.08
2019-03-27T04:09:05.559Z,1016.04
2019-03-27T04:10:05.578Z,1016.07
2019-03-27T04:11:05.560Z,1016.06
2019-03-27T04:12:05.572Z,1016.07
2019-03-27T04:13:05.568Z,1016.05
2019-03-27T04:14:05.562Z,1016.10
2019-03-27T04:15:05.558Z,1016.14
2019-03-27T04:16:05.566Z,1016.13
2019-03-27T04:17:16.809Z,1016.12
2019-03-27T04:18:06.570Z,1016.16
2019-03-27T04:19:05.577Z,1016.15
2019-03-27T04:20:05.569Z,1016.16
2019-03-27T04:21:05.564Z,1016.12
2019-03-27T04:22:05.576Z,1016.11
2019-03-27T04:23:05.558Z,1016.06
2019-03-27T04:24:05.566Z,1016.05
2019-03-27T04:25:05.558Z,1016.04
2019-03-27T04:26:10.417Z,1016.02
2019-03-27T04:27:06.566Z,1016.04
2019-03-27T04:28:05.555Z,1016.02
2019-03-27T04:29:05.550Z,1016.05
2019-03-27T04:30:05.560Z,1016.09
2019-03-27T04:31:05.573Z,1016.08
2019-03-27T04:32:05.559Z,1016.11
2019-03-27T04:33:05.569Z,1016.16
2019-03-27T04:34:05.558Z,1016.13
2019-03-27T04:35:05.563Z,1016.19
2019-03-27T04:36:05.559Z,1016.18
2019-03-27T04:37:05.559Z,1016.18
2019-03-27T04:38:05.568Z,1016.15
2019-03-27T04:39:05.555Z,1016.14
2019-03-27T04:40:05.554Z,1016.14
2019-03-27T04:41:05.601Z,1016.15
2019-03-27T04:42:05.623Z,1016.17
2019-03-27T04:43:05.558Z,1016.18
2019-03-27T04:44:05.557Z,1016.19
2019-03-27T04:45:05.567Z,1016.18
2019-03-27T04:46:05.554Z,1016.19
2019-03-27T04:47:05.632Z,1016.16
2019-03-27T04:48:04.555Z,1016.16
2019-03-27T04:49:07.701Z,1016.16
2019-03-27T04:50:05.059Z,1016.12
2019-03-27T04:51:05.056Z,1016.16
2019-03-27T04:52:05.062Z,1016.12
2019-03-27T04:53:05.054Z,1016.17
2019-03-27T04:54:05.054Z,1016.21
2019-03-27T04:55:05.062Z,1016.20
2019-03-27T04:56:05.055Z,1016.19
2019-03-27T04:57:05.054Z,1016.22
2019-03-27T04:58:05.064Z,1016.18
2019-03-27T04:59:05.072Z,1016.21
2019-03-27T05:00:05.115Z,1016.19
2019-03-27T05:01:05.041Z,1016.22
2019-03-27T05:02:06.640Z,1016.22
2019-03-27T05:03:05.064Z,1016.21
2019-03-27T05:04:05.054Z,1016.20
2019-03-27T05:05:03.389Z,1016.25
2019-03-27T05:06:05.046Z,1016.25
2019-03-27T05:07:05.050Z,1016.25
2019-03-27T05:08:05.062Z,1016.27
2019-03-27T05:09:05.053Z,1016.28
2019-03-27T05:10:05.041Z,1016.26
2019-03-27T05:11:03.333Z,1016.31
2019-03-27T05:12:05.050Z,1016.33
2019-03-27T05:13:05.056Z,1016.35
2019-03-27T05:14:05.057Z,1016.36
2019-03-27T05:15:05.051Z,1016.38
2019-03-27T05:16:05.052Z,1016.41
2019-03-27T05:17:05.071Z,1016.47
2019-03-27T05:18:05.042Z,1016.49
2019-03-27T05:19:05.051Z,1016.50
2019-03-27T05:20:05.049Z,1016.53
2019-03-27T05:21:05.068Z,1016.56
2019-03-27T05:22:05.120Z,1016.56
2019-03-27T05:23:05.059Z,1016.60
2019-03-27T05:24:05.048Z,1016.58
2019-03-27T05:25:05.054Z,1016.62
2019-03-27T05:26:05.053Z,1016.60
2019-03-27T05:27:05.059Z,1016.59
2019-03-27T05:28:05.051Z,1016.56
2019-03-27T05:29:05.065Z,1016.54
2019-03-27T05:30:05.037Z,1016.61
2019-03-27T05:31:05.047Z,1016.63
2019-03-27T05:32:05.090Z,1016.65
2019-03-27T05:33:05.060Z,1016.63
2019-03-27T05:34:05.068Z,1016.66
2019-03-27T05:35:05.072Z,1016.67
2019-03-27T05:36:04.621Z,1016.70
2019-03-27T05:37:04.550Z,1016.74
2019-03-27T05:38:04.566Z,1016.72
2019-03-27T05:39:04.562Z,1016.73
2019-03-27T05:40:03.010Z,1016.70
2019-03-27T05:41:04.556Z,1016.75
2019-03-27T05:42:04.547Z,1016.77
2019-03-27T05:43:04.556Z,1016.76
2019-03-27T05:44:04.550Z,1016.80
2019-03-27T05:45:04.555Z,1016.80
2019-03-27T05:46:04.548Z,1016.81
2019-03-27T05:47:04.550Z,1016.80
2019-03-27T05:48:04.559Z,1016.80
2019-03-27T05:49:04.552Z,1016.85
2019-03-27T05:50:04.553Z,1016.88
2019-03-27T05:51:04.586Z,1016.73
2019-03-27T05:52:04.534Z,1016.72
2019-03-27T05:53:04.544Z,1016.76
2019-03-27T05:54:04.549Z,1016.70
2019-03-27T05:55:04.561Z,1016.72
2019-03-27T05:56:04.533Z,1016.72
2019-03-27T05:57:04.548Z,1016.74
2019-03-27T05:58:04.553Z,1016.78
2019-03-27T05:59:04.546Z,1016.82
2019-03-27T06:00:04.548Z,1016.82
2019-03-27T06:01:04.061Z,1016.83
2019-03-27T06:02:04.583Z,1016.83
2019-03-27T06:03:03.698Z,1016.79
2019-03-27T06:04:04.543Z,1016.81
2019-03-27T06:05:04.544Z,1016.84
2019-03-27T06:06:04.555Z,1016.83
2019-03-27T06:07:04.556Z,1016.85
2019-03-27T06:08:04.544Z,1016.80
2019-03-27T06:09:02.698Z,1016.84
2019-03-27T06:10:04.545Z,1016.86
2019-03-27T06:11:04.531Z,1016.90
2019-03-27T06:12:04.559Z,1016.88
2019-03-27T06:13:04.554Z,1016.85
2019-03-27T06:14:04.550Z,1016.92
2019-03-27T06:15:04.531Z,1016.93
2019-03-27T06:16:04.535Z,1016.97
2019-03-27T06:17:04.541Z,1016.94
2019-03-27T06:18:13.068Z,1016.97
2019-03-27T06:19:05.553Z,1016.98
2019-03-27T06:20:04.542Z,1017.01
2019-03-27T06:21:04.596Z,1017.01
2019-03-27T06:22:04.540Z,1017.03
2019-03-27T06:23:04.048Z,1017.05
2019-03-27T06:24:04.050Z,1017.06
2019-03-27T06:25:04.047Z,1017.08
2019-03-27T06:26:04.050Z,1017.08
2019-03-27T06:27:04.052Z,1017.12
2019-03-27T06:28:04.032Z,1017.10
2019-03-27T06:29:04.039Z,1017.05
2019-03-27T06:30:04.051Z,1017.04
2019-03-27T06:31:04.043Z,1017.07
2019-03-27T06:32:04.042Z,1017.08
2019-03-27T06:33:04.043Z,1017.08
2019-03-27T06:34:04.051Z,1017.09
2019-03-27T06:35:04.040Z,1017.13
2019-03-27T06:36:04.037Z,1017.12
2019-03-27T06:37:04.042Z,1017.19
2019-03-27T06:38:04.042Z,1017.16
2019-03-27T06:39:04.040Z,1017.14
2019-03-27T06:40:04.054Z,1017.11
2019-03-27T06:41:04.040Z,1017.14
2019-03-27T06:42:04.050Z,1017.12
2019-03-27T06:43:04.086Z,1017.12
2019-03-27T06:44:04.051Z,1017.14
2019-03-27T06:45:04.043Z,1017.17
2019-03-27T06:46:04.048Z,1017.14
2019-03-27T06:47:04.028Z,1017.14
2019-03-27T06:48:04.037Z,1017.16
2019-03-27T06:49:04.039Z,1017.14
2019-03-27T06:50:04.050Z,1017.19
2019-03-27T06:51:04.047Z,1017.23
2019-03-27T06:52:04.050Z,1017.27
2019-03-27T06:53:04.054Z,1017.24
2019-03-27T06:54:04.039Z,1017.26
2019-03-27T06:55:04.046Z,1017.25
2019-03-27T06:56:04.038Z,1017.27
2019-03-27T06:57:04.044Z,1017.18
2019-03-27T06:58:04.039Z,1017.20
2019-03-27T06:59:02.162Z,1017.16
2019-03-27T07:00:04.026Z,1017.19
2019-03-27T07:01:04.036Z,1017.19
2019-03-27T07:02:04.046Z,1017.23
2019-03-27T07:03:04.039Z,1017.19
2019-03-27T07:04:10.544Z,1017.26
2019-03-27T07:05:32.983Z,1017.24
2019-03-27T07:06:34.713Z,1017.24
2019-03-27T07:07:34.707Z,1017.24
2019-03-27T07:08:34.696Z,1017.24
2019-03-27T07:09:34.723Z,1017.24
2019-03-27T07:10:34.707Z,1017.24
2019-03-27T07:11:34.704Z,1017.26
2019-03-27T07:12:34.708Z,1017.30
2019-03-27T07:13:34.695Z,1017.24
2019-03-27T07:14:32.903Z,1017.25
2019-03-27T07:15:35.836Z,1017.27
2019-03-27T07:16:34.704Z,1017.26
2019-03-27T07:17:34.714Z,1017.27
2019-03-27T07:18:40.359Z,1017.24
2019-03-27T07:19:34.712Z,1017.22
2019-03-27T07:20:34.712Z,1017.23
2019-03-27T07:21:34.711Z,1017.22
2019-03-27T07:22:34.701Z,1017.20
2019-03-27T07:23:34.705Z,1017.20
2019-03-27T07:24:34.704Z,1017.21
2019-03-27T07:25:34.709Z,1017.21
2019-03-27T07:26:34.701Z,1017.23
2019-03-27T07:27:34.728Z,1017.22
2019-03-27T07:28:34.764Z,1017.30
2019-03-27T07:29:34.703Z,1017.31
2019-03-27T07:30:34.212Z,1017.27
2019-03-27T07:31:34.204Z,1017.28
2019-03-27T07:32:34.201Z,1017.24
2019-03-27T07:33:34.193Z,1017.26
2019-03-27T07:34:34.202Z,1017.27
2019-03-27T07:35:34.214Z,1017.26
2019-03-27T07:36:34.202Z,1017.29
2019-03-27T07:37:34.204Z,1017.28
2019-03-27T07:38:34.204Z,1017.34
2019-03-27T07:39:34.200Z,1017.28
2019-03-27T07:40:34.211Z,1017.28
2019-03-27T07:41:34.247Z,1017.33
2019-03-27T07:42:34.218Z,1017.32
2019-03-27T07:43:34.200Z,1017.40
2019-03-27T07:44:34.191Z,1017.40
2019-03-27T07:45:32.542Z,1017.43
2019-03-27T07:46:34.199Z,1017.38
2019-03-27T07:47:34.212Z,1017.45
2019-03-27T07:48:34.201Z,1017.46
2019-03-27T07:49:34.202Z,1017.46
2019-03-27T07:50:34.201Z,1017.46
2019-03-27T07:51:34.198Z,1017.47
2019-03-27T07:52:34.206Z,1017.49
2019-03-27T07:53:34.188Z,1017.50
2019-03-27T07:54:34.199Z,1017.50
2019-03-27T07:55:34.205Z,1017.46
2019-03-27T07:56:34.211Z,1017.57
2019-03-27T07:57:34.236Z,1017.49
2019-03-27T07:58:34.203Z,1017.48
2019-03-27T07:59:34.200Z,1017.55
2019-03-27T08:00:34.200Z,1017.51
2019-03-27T08:01:34.200Z,1017.53
2019-03-27T08:02:34.200Z,1017.57
2019-03-27T08:03:34.206Z,1017.62
2019-03-27T08:04:34.198Z,1017.61
2019-03-27T08:05:34.197Z,1017.60
2019-03-27T08:06:34.210Z,1017.60
2019-03-27T08:07:34.200Z,1017.58
2019-03-27T08:08:35.323Z,1017.61
2019-03-27T08:09:34.270Z,1017.61
2019-03-27T08:10:34.199Z,1017.61
2019-03-27T08:11:32.360Z,1017.58
2019-03-27T08:12:34.197Z,1017.61
2019-03-27T08:13:34.212Z,1017.61
2019-03-27T08:14:34.199Z,1017.56
2019-03-27T08:15:34.198Z,1017.53
2019-03-27T08:16:34.197Z,1017.51
2019-03-27T08:17:33.702Z,1017.51
2019-03-27T08:18:33.697Z,1017.53
2019-03-27T08:19:33.710Z,1017.52
2019-03-27T08:20:33.702Z,1017.60
2019-03-27T08:21:33.717Z,1017.57
2019-03-27T08:22:33.742Z,1017.57
2019-03-27T08:23:33.686Z,1017.54
2019-03-27T08:24:33.708Z,1017.53
2019-03-27T08:25:33.698Z,1017.53
2019-03-27T08:26:33.697Z,1017.51
2019-03-27T08:27:33.700Z,1017.52
2019-03-27T08:28:33.700Z,1017.49
2019-03-27T08:29:33.697Z,1017.45
2019-03-27T08:30:33.703Z,1017.51
2019-03-27T08:31:33.699Z,1017.53
2019-03-27T08:32:33.699Z,1017.51
2019-03-27T08:33:33.698Z,1017.57
2019-03-27T08:34:33.700Z,1017.56
2019-03-27T08:35:33.702Z,1017.59
2019-03-27T08:36:33.713Z,1017.57
2019-03-27T08:37:32.002Z,1017.56
2019-03-27T08:38:33.686Z,1017.56
2019-03-27T08:39:33.699Z,1017.54
2019-03-27T08:40:33.701Z,1017.59
2019-03-27T08:41:33.699Z,1017.63
2019-03-27T08:42:32.702Z,1017.65
2019-03-27T08:43:33.703Z,1017.64
2019-03-27T08:44:33.698Z,1017.64
2019-03-27T08:45:33.701Z,1017.74
2019-03-27T08:46:33.708Z,1017.67
2019-03-27T08:47:33.723Z,1017.66
2019-03-27T08:48:33.736Z,1017.68
2019-03-27T08:49:33.706Z,1017.67
2019-03-27T08:50:33.685Z,1017.69
2019-03-27T08:51:33.730Z,1017.66
2019-03-27T08:52:33.707Z,1017.69
2019-03-27T08:53:33.698Z,1017.74
2019-03-27T08:54:33.703Z,1017.68
2019-03-27T08:55:33.687Z,1017.64
2019-03-27T08:56:33.695Z,1017.62
2019-03-27T08:57:33.698Z,1017.69
2019-03-27T08:58:33.723Z,1017.69
2019-03-27T08:59:32.790Z,1017.70
2019-03-27T09:00:33.764Z,1017.67
2019-03-27T09:01:33.697Z,1017.68
2019-03-27T09:02:33.703Z,1017.69
2019-03-27T09:03:33.203Z,1017.70
2019-03-27T09:04:33.214Z,1017.67
2019-03-27T09:05:33.198Z,1017.67
2019-03-27T09:06:34.302Z,1017.68
2019-03-27T09:07:33.187Z,1017.70
2019-03-27T09:08:31.655Z,1017.68
2019-03-27T09:09:33.222Z,1017.71
2019-03-27T09:10:33.203Z,1017.75
2019-03-27T09:11:33.200Z,1017.71
2019-03-27T09:12:33.229Z,1017.71
2019-03-27T09:13:33.243Z,1017.71
2019-03-27T09:14:33.195Z,1017.61
2019-03-27T09:15:33.185Z,1017.69
2019-03-27T09:16:33.202Z,1017.64
2019-03-27T09:17:33.205Z,1017.66
2019-03-27T09:18:33.195Z,1017.69
2019-03-27T09:19:35.893Z,1017.66
2019-03-27T09:20:33.193Z,1017.61
2019-03-27T09:21:33.203Z,1017.63
2019-03-27T09:22:33.184Z,1017.65
2019-03-27T09:23:33.196Z,1017.65
2019-03-27T09:24:33.198Z,1017.68
2019-03-27T09:25:33.198Z,1017.70
2019-03-27T09:26:33.205Z,1017.68
2019-03-27T09:27:33.185Z,1017.72
2019-03-27T09:28:33.193Z,1017.71
2019-03-27T09:29:33.194Z,1017.69
2019-03-27T09:30:33.185Z,1017.68
2019-03-27T09:31:44.103Z,1017.71
2019-03-27T09:32:34.205Z,1017.72
2019-03-27T09:33:33.204Z,1017.68
2019-03-27T09:34:31.351Z,1017.70
2019-03-27T09:35:33.199Z,1017.68
2019-03-27T09:36:33.204Z,1017.74
2019-03-27T09:37:33.204Z,1017.75
2019-03-27T09:38:33.195Z,1017.77
2019-03-27T09:39:31.717Z,1017.79
2019-03-27T09:40:33.225Z,1017.81
2019-03-27T09:41:33.284Z,1017.77
2019-03-27T09:42:33.183Z,1017.79
2019-03-27T09:43:33.195Z,1017.71
2019-03-27T09:44:33.203Z,1017.78
2019-03-27T09:45:33.202Z,1017.78
2019-03-27T09:46:33.215Z,1017.81
2019-03-27T09:47:34.776Z,1017.86
2019-03-27T09:48:32.702Z,1017.93
2019-03-27T09:49:32.712Z,1017.93
2019-03-27T09:50:32.696Z,1017.93
2019-03-27T09:51:32.695Z,1017.93
2019-03-27T09:52:32.705Z,1017.91
2019-03-27T09:53:32.747Z,1017.88
2019-03-27T09:54:32.742Z,1017.93
2019-03-27T09:55:32.694Z,1017.97
2019-03-27T09:56:32.695Z,1017.92
2019-03-27T09:57:32.707Z,1017.88
2019-03-27T09:58:32.705Z,1017.87
2019-03-27T09:59:32.699Z,1017.84
2019-03-27T10:00:32.702Z,1017.81
2019-03-27T10:01:32.693Z,1017.77
2019-03-27T10:02:32.684Z,1017.85
2019-03-27T10:03:32.694Z,1017.85
2019-03-27T10:04:32.702Z,1017.87
2019-03-27T10:05:31.017Z,1017.86
2019-03-27T10:06:32.684Z,1017.85
2019-03-27T10:07:32.701Z,1017.82
2019-03-27T10:08:32.703Z,1017.78
2019-03-27T10:09:32.703Z,1017.79
2019-03-27T10:10:32.694Z,1017.81
2019-03-27T10:11:32.682Z,1017.80
2019-03-27T10:12:32.692Z,1017.79
2019-03-27T10:13:32.696Z,1017.70
2019-03-27T10:14:32.681Z,1017.74
2019-03-27T10:15:32.705Z,1017.75
2019-03-27T10:16:32.698Z,1017.74
2019-03-27T10:17:32.694Z,1017.75
2019-03-27T10:18:32.695Z,1017.78
2019-03-27T10:19:32.705Z,1017.77
2019-03-27T10:20:32.739Z,1017.81
2019-03-27T10:21:32.756Z,1017.80
2019-03-27T10:22:32.693Z,1017.75
2019-03-27T10:23:32.682Z,1017.77
2019-03-27T10:24:32.693Z,1017.80
2019-03-27T10:25:32.702Z,1017.72
2019-03-27T10:26:32.684Z,1017.76
2019-03-27T10:27:32.694Z,1017.75
2019-03-27T10:28:32.695Z,1017.80
2019-03-27T10:29:32.703Z,1017.77
2019-03-27T10:30:32.699Z,1017.80
2019-03-27T10:31:30.749Z,1017.79
2019-03-27T10:32:32.692Z,1017.82
2019-03-27T10:33:31.702Z,1017.82
2019-03-27T10:34:31.691Z,1017.85
2019-03-27T10:35:32.195Z,1017.82
2019-03-27T10:36:32.202Z,1017.79
2019-03-27T10:37:32.193Z,1017.75
2019-03-27T10:38:32.181Z,1017.77
2019-03-27T10:39:32.200Z,1017.71
2019-03-27T10:40:32.198Z,1017.71
2019-03-27T10:41:32.200Z,1017.77
2019-03-27T10:42:32.207Z,1017.75
2019-03-27T10:43:32.180Z,1017.87
2019-03-27T10:44:32.191Z,1017.80
2019-03-27T10:45:32.191Z,1017.78
2019-03-27T10:46:32.184Z,1017.73
2019-03-27T10:47:32.207Z,1017.76
2019-03-27T10:48:32.199Z,1017.74
2019-03-27T10:49:34.399Z,1017.70
2019-03-27T10:50:32.192Z,1017.72
2019-03-27T10:51:32.197Z,1017.65
2019-03-27T10:52:32.201Z,1017.71
2019-03-27T10:53:32.193Z,1017.69
2019-03-27T10:54:32.192Z,1017.73
2019-03-27T10:55:34.529Z,1017.69
2019-03-27T10:56:32.191Z,1017.67
2019-03-27T10:57:32.201Z,1017.74
2019-03-27T10:58:32.191Z,1017.71
2019-03-27T10:59:32.206Z,1017.76
2019-03-27T11:00:32.203Z,1017.76
2019-03-27T11:01:32.256Z,1017.76
2019-03-27T11:02:30.403Z,1017.78
2019-03-27T11:03:32.181Z,1017.82
2019-03-27T11:04:32.199Z,1017.89
2019-03-27T11:05:32.191Z,1017.79
2019-03-27T11:06:32.181Z,1017.86
2019-03-27T11:07:32.194Z,1017.90
2019-03-27T11:08:32.195Z,1017.97
2019-03-27T11:09:32.199Z,1017.90
2019-03-27T11:10:32.194Z,1017.95
2019-03-27T11:11:32.194Z,1017.90
2019-03-27T11:12:32.193Z,1017.91
2019-03-27T11:13:34.399Z,1017.87
2019-03-27T11:14:38.250Z,1017.90
2019-03-27T11:15:33.191Z,1017.93
2019-03-27T11:16:32.194Z,1017.92
2019-03-27T11:17:32.191Z,1017.92
2019-03-27T11:18:32.195Z,1017.92
2019-03-27T11:19:33.684Z,1017.95
2019-03-27T11:20:31.837Z,1018.00
2019-03-27T11:21:31.704Z,1018.03
2019-03-27T11:22:31.693Z,1018.11
2019-03-27T11:23:31.685Z,1018.13
2019-03-27T11:24:31.691Z,1018.19
2019-03-27T11:25:33.359Z,1018.12
2019-03-27T11:26:31.709Z,1018.07
2019-03-27T11:27:31.703Z,1018.05
2019-03-27T11:28:30.105Z,1017.83
2019-03-27T11:29:31.692Z,1017.83
2019-03-27T11:30:31.694Z,1017.99
2019-03-27T11:31:31.706Z,1017.94
2019-03-27T11:32:31.696Z,1017.76
2019-03-27T11:33:31.703Z,1017.77
2019-03-27T11:34:31.696Z,1017.73
2019-03-27T11:35:31.693Z,1017.72
2019-03-27T11:36:32.018Z,1017.71
2019-03-27T11:37:31.703Z,1017.68
2019-03-27T11:38:31.682Z,1017.70
2019-03-27T11:39:31.695Z,1017.68
2019-03-27T11:40:31.694Z,1017.69
2019-03-27T11:41:31.707Z,1017.69
2019-03-27T11:42:31.740Z,1017.68
2019-03-27T11:43:31.763Z,1017.67
2019-03-27T11:44:31.694Z,1017.73
2019-03-27T11:45:31.699Z,1017.71
2019-03-27T11:46:32.383Z,1017.75
2019-03-27T11:47:31.692Z,1017.70
2019-03-27T11:48:31.703Z,1017.62
2019-03-27T11:49:31.692Z,1017.63
2019-03-27T11:50:44.179Z,1017.66
2019-03-27T11:51:32.695Z,1017.61
2019-03-27T11:52:31.704Z,1017.61
2019-03-27T11:53:31.706Z,1017.58
2019-03-27T11:54:29.825Z,1017.58
2019-03-27T11:55:31.691Z,1017.55
2019-03-27T11:56:31.694Z,1017.59
2019-03-27T11:57:31.695Z,1017.57
2019-03-27T11:58:31.705Z,1017.58
2019-03-27T11:59:29.764Z,1017.55
2019-03-27T12:00:31.709Z,1017.51
2019-03-27T12:01:40.510Z,1017.49
2019-03-27T12:02:32.685Z,1017.55
2019-03-27T12:03:31.705Z,1017.55
2019-03-27T12:04:31.695Z,1017.54
2019-03-27T12:05:31.694Z,1017.56